Adrian, Illinois
Current Conditions -  °F | °C
As of 8:55 PM on Monday 20 Oct 2014 (Local Time) from KFSW Reporting Station
Clear Clear  
Wind Chill: 55°   Ceiling: Unl
Heat Index: 55°   Visibility: 10mi
Dew Point: 45°   Wind: 5mph
Humidity: 67%   Direction: 280°W
Pressure: 30.01"   Gusts: NA
Location:  40.52°N, 91.17°W
Report Text: KFSW 210155Z AUTO 28004KT 10SM CLR 13/07 A3001 RMK AO2
Loading
Personal Weather Stations






























Interactive Weather Map New forecast layout! Learn more

10-Day Weather Forecast

Advertisements
Track Severe Weather on mobile